createdAt,value
2023-07-18T00:00:15.626Z,97.80
2023-07-18T00:00:20.758Z,97.91
2023-07-18T00:00:25.869Z,97.80
2023-07-18T00:00:31.064Z,97.80
2023-07-18T00:00:36.298Z,97.80
2023-07-18T00:00:56.609Z,97.50
2023-07-18T00:01:17.343Z,97.20
2023-07-18T00:01:23.286Z,97.20
2023-07-18T00:01:29.235Z,97.09
2023-07-18T00:01:34.371Z,97.09
2023-07-18T00:01:39.584Z,97.09
2023-07-18T00:02:00.059Z,96.99
2023-07-18T00:02:20.399Z,97.09
2023-07-18T00:02:25.510Z,97.09
2023-07-18T00:02:30.596Z,97.09
2023-07-18T00:02:35.715Z,97.09
2023-07-18T00:02:40.902Z,97.20
2023-07-18T00:03:03.148Z,97.30
2023-07-18T00:03:23.476Z,97.50
2023-07-18T00:03:28.600Z,97.50
2023-07-18T00:03:33.724Z,97.50
2023-07-18T00:03:38.927Z,97.50
2023-07-18T00:03:44.401Z,97.50
2023-07-18T00:04:04.716Z,97.30
2023-07-18T00:04:24.922Z,97.20
2023-07-18T00:04:30.006Z,97.20
2023-07-18T00:04:35.096Z,97.09
2023-07-18T00:04:40.183Z,97.09
2023-07-18T00:04:45.368Z,97.09
2023-07-18T00:05:05.555Z,97.09
2023-07-18T00:05:25.955Z,96.99
2023-07-18T00:05:31.113Z,96.99
2023-07-18T00:05:36.266Z,96.99
2023-07-18T00:05:41.355Z,96.99
2023-07-18T00:05:47.780Z,96.89
2023-07-18T00:06:08.208Z,96.89
2023-07-18T00:06:28.572Z,96.79
2023-07-18T00:06:33.651Z,96.89
2023-07-18T00:06:38.723Z,96.79
2023-07-18T00:06:43.798Z,96.89
2023-07-18T00:06:48.920Z,96.79
2023-07-18T00:07:09.164Z,96.79
2023-07-18T00:07:29.424Z,96.79
2023-07-18T00:07:34.501Z,96.79
2023-07-18T00:07:39.598Z,96.69
2023-07-18T00:07:44.663Z,96.69
2023-07-18T00:07:49.745Z,96.69
2023-07-18T00:08:10.004Z,96.59
2023-07-18T00:08:30.231Z,96.48
2023-07-18T00:08:35.320Z,96.48
2023-07-18T00:08:40.405Z,96.48
2023-07-18T00:08:45.478Z,96.48
2023-07-18T00:08:50.592Z,96.48
2023-07-18T00:09:11.461Z,96.48
2023-07-18T00:09:31.724Z,96.48
2023-07-18T00:09:36.839Z,96.38
2023-07-18T00:09:41.916Z,96.38
2023-07-18T00:09:46.993Z,96.38
2023-07-18T00:09:52.167Z,96.48
2023-07-18T00:10:12.425Z,96.48
2023-07-18T00:10:32.642Z,96.48
2023-07-18T00:10:37.715Z,96.59
2023-07-18T00:10:42.800Z,96.59
2023-07-18T00:10:47.871Z,96.59
2023-07-18T00:10:52.976Z,96.59
2023-07-18T00:11:13.212Z,96.38
2023-07-18T00:11:33.414Z,96.48
2023-07-18T00:11:38.496Z,96.48
2023-07-18T00:11:43.611Z,96.48
2023-07-18T00:11:48.696Z,96.48
2023-07-18T00:11:53.767Z,96.48
2023-07-18T00:12:14.279Z,96.48
2023-07-18T00:12:34.463Z,96.48
2023-07-18T00:12:39.550Z,96.59
2023-07-18T00:12:44.631Z,96.69
2023-07-18T00:12:49.705Z,96.69
2023-07-18T00:12:54.778Z,96.79
2023-07-18T00:13:14.998Z,96.79
2023-07-18T00:13:35.891Z,96.89
2023-07-18T00:13:41.105Z,96.89
2023-07-18T00:13:46.181Z,96.89
2023-07-18T00:13:51.274Z,96.89
2023-07-18T00:13:56.368Z,96.89
2023-07-18T00:14:18.471Z,96.89
2023-07-18T00:14:38.696Z,96.89
2023-07-18T00:14:43.765Z,96.89
2023-07-18T00:14:48.841Z,96.89
2023-07-18T00:14:53.921Z,96.99
2023-07-18T00:14:59.021Z,96.99
2023-07-18T00:15:19.397Z,96.99
2023-07-18T00:15:39.589Z,97.20
2023-07-18T00:15:44.771Z,97.20
2023-07-18T00:15:49.969Z,97.20
2023-07-18T00:15:55.294Z,97.20
2023-07-18T00:16:00.528Z,97.20
2023-07-18T00:16:21.016Z,97.20
2023-07-18T00:16:41.366Z,97.20
2023-07-18T00:16:46.474Z,97.20
2023-07-18T00:16:51.581Z,97.20
2023-07-18T00:16:56.688Z,97.20
2023-07-18T00:17:01.780Z,97.20
2023-07-18T00:17:22.094Z,97.20
2023-07-18T00:17:42.393Z,97.30
2023-07-18T00:17:48.496Z,97.40
2023-07-18T00:17:53.640Z,97.40
2023-07-18T00:17:58.812Z,97.30
2023-07-18T00:18:03.995Z,97.30
2023-07-18T00:18:25.230Z,97.09
2023-07-18T00:18:46.412Z,96.99
2023-07-18T00:18:51.566Z,96.99
2023-07-18T00:18:56.672Z,96.99
2023-07-18T00:19:01.783Z,96.99
2023-07-18T00:19:07.037Z,96.99
2023-07-18T00:19:27.320Z,96.89
2023-07-18T00:19:47.687Z,96.79
2023-07-18T00:19:52.772Z,96.79
2023-07-18T00:19:58.014Z,96.69
2023-07-18T00:20:03.077Z,96.69
2023-07-18T00:20:08.157Z,96.69
2023-07-18T00:20:28.592Z,96.59
2023-07-18T00:20:48.800Z,96.59
2023-07-18T00:20:53.871Z,96.48
2023-07-18T00:20:58.965Z,96.48
2023-07-18T00:21:04.311Z,96.48
2023-07-18T00:21:09.433Z,96.48
2023-07-18T00:21:29.620Z,96.38
2023-07-18T00:21:49.998Z,96.28
2023-07-18T00:21:55.064Z,96.28
2023-07-18T00:22:00.145Z,96.28
2023-07-18T00:22:05.213Z,96.28
2023-07-18T00:22:10.292Z,96.38
2023-07-18T00:22:30.576Z,96.38
2023-07-18T00:22:51.535Z,96.23
2023-07-18T00:22:56.640Z,96.28
2023-07-18T00:23:01.820Z,96.28
2023-07-18T00:23:07.073Z,96.23
2023-07-18T00:23:12.247Z,96.23
2023-07-18T00:23:32.468Z,96.23
2023-07-18T00:23:52.782Z,96.34
2023-07-18T00:23:57.853Z,96.34
2023-07-18T00:24:02.937Z,96.38
2023-07-18T00:24:08.236Z,96.34
2023-07-18T00:24:13.309Z,96.23
2023-07-18T00:24:33.515Z,96.23
2023-07-18T00:24:53.820Z,96.34
2023-07-18T00:24:59.081Z,96.34
2023-07-18T00:25:04.321Z,96.34
2023-07-18T00:25:09.399Z,96.34
2023-07-18T00:25:14.772Z,96.34
2023-07-18T00:25:35.222Z,96.44
2023-07-18T00:25:55.633Z,96.34
2023-07-18T00:26:00.724Z,96.38
2023-07-18T00:26:05.827Z,96.34
2023-07-18T00:26:10.910Z,96.34
2023-07-18T00:26:16.004Z,96.34
2023-07-18T00:26:36.238Z,96.23
2023-07-18T00:26:56.656Z,96.03
2023-07-18T00:27:01.833Z,96.03
2023-07-18T00:27:06.920Z,96.03
2023-07-18T00:27:12.027Z,96.03
2023-07-18T00:27:17.120Z,96.03
2023-07-18T00:27:37.300Z,95.94
2023-07-18T00:27:57.588Z,95.94
2023-07-18T00:28:02.664Z,95.94
2023-07-18T00:28:07.752Z,95.94
2023-07-18T00:28:12.924Z,95.94
2023-07-18T00:28:18.016Z,95.94
2023-07-18T00:28:38.336Z,95.94
2023-07-18T00:28:58.698Z,95.83
2023-07-18T00:29:03.770Z,95.87
2023-07-18T00:29:08.851Z,95.87
2023-07-18T00:29:13.942Z,95.83
2023-07-18T00:29:19.014Z,95.83
2023-07-18T00:29:39.709Z,95.78
2023-07-18T00:29:59.986Z,95.53
2023-07-18T00:30:05.255Z,95.53
2023-07-18T00:30:10.357Z,95.53
2023-07-18T00:30:16.209Z,95.53
2023-07-18T00:30:21.305Z,95.53
2023-07-18T00:30:41.500Z,95.53
2023-07-18T00:31:01.716Z,95.53
2023-07-18T00:31:07.000Z,95.42
2023-07-18T00:31:12.135Z,95.42
2023-07-18T00:31:17.578Z,95.47
2023-07-18T00:31:23.183Z,95.57
2023-07-18T00:31:43.540Z,95.57
2023-07-18T00:32:03.790Z,95.53
2023-07-18T00:32:09.579Z,95.53
2023-07-18T00:32:14.758Z,95.53
2023-07-18T00:32:19.822Z,95.53
2023-07-18T00:32:24.920Z,95.57
2023-07-18T00:32:45.815Z,95.53
2023-07-18T00:33:06.446Z,95.57
2023-07-18T00:33:11.540Z,95.57
2023-07-18T00:33:16.634Z,95.53
2023-07-18T00:33:21.708Z,95.47
2023-07-18T00:33:26.809Z,95.42
2023-07-18T00:33:48.609Z,95.47
2023-07-18T00:34:08.851Z,95.42
2023-07-18T00:34:13.953Z,95.47
2023-07-18T00:34:19.049Z,95.47
2023-07-18T00:34:24.266Z,95.47
2023-07-18T00:34:29.392Z,95.42
2023-07-18T00:34:49.746Z,95.42
2023-07-18T00:35:10.004Z,95.42
2023-07-18T00:35:15.226Z,95.47
2023-07-18T00:35:20.310Z,95.47
2023-07-18T00:35:25.543Z,95.57
2023-07-18T00:35:30.637Z,95.57
2023-07-18T00:35:51.002Z,95.67
2023-07-18T00:36:11.177Z,95.57
2023-07-18T00:36:16.271Z,95.57
2023-07-18T00:36:21.378Z,95.53
2023-07-18T00:36:26.465Z,95.53
2023-07-18T00:36:31.558Z,95.57
2023-07-18T00:36:51.734Z,95.78
2023-07-18T00:37:12.073Z,95.98
2023-07-18T00:37:17.151Z,95.98
2023-07-18T00:37:22.220Z,95.98
2023-07-18T00:37:27.303Z,95.94
2023-07-18T00:37:32.383Z,95.98
2023-07-18T00:37:52.619Z,95.98
2023-07-18T00:38:13.043Z,95.98
2023-07-18T00:38:18.137Z,95.98
2023-07-18T00:38:23.253Z,95.98
2023-07-18T00:38:28.371Z,95.98
2023-07-18T00:38:33.490Z,95.98
2023-07-18T00:38:53.836Z,96.08
2023-07-18T00:39:14.105Z,96.08
2023-07-18T00:39:19.381Z,96.18
2023-07-18T00:39:24.500Z,96.18
2023-07-18T00:39:29.605Z,96.18
2023-07-18T00:39:34.676Z,96.18
2023-07-18T00:39:54.918Z,96.28
2023-07-18T00:40:15.148Z,96.48
2023-07-18T00:40:20.219Z,96.48
2023-07-18T00:40:25.325Z,96.48
2023-07-18T00:40:30.442Z,96.48
2023-07-18T00:40:35.538Z,96.38
2023-07-18T00:40:55.858Z,96.38
2023-07-18T00:41:16.398Z,96.28
2023-07-18T00:41:21.786Z,96.28
2023-07-18T00:41:26.873Z,96.28
2023-07-18T00:41:31.958Z,96.18
2023-07-18T00:41:37.032Z,96.18
2023-07-18T00:41:57.266Z,96.28
2023-07-18T00:42:17.515Z,96.18
2023-07-18T00:42:22.623Z,96.18
2023-07-18T00:42:27.699Z,96.18
2023-07-18T00:42:32.816Z,96.18
2023-07-18T00:42:37.891Z,96.18
2023-07-18T00:42:58.145Z,96.18
2023-07-18T00:43:18.371Z,96.18
2023-07-18T00:43:23.450Z,96.18
2023-07-18T00:43:28.546Z,96.08
2023-07-18T00:43:33.627Z,96.08
2023-07-18T00:43:38.948Z,96.08
2023-07-18T00:43:59.186Z,96.08
2023-07-18T00:44:19.411Z,96.28
2023-07-18T00:44:24.560Z,96.28
2023-07-18T00:44:29.609Z,96.28
2023-07-18T00:44:34.751Z,96.28
2023-07-18T00:44:39.840Z,96.28
2023-07-18T00:45:00.297Z,96.18
2023-07-18T00:45:21.631Z,96.48
2023-07-18T00:45:26.914Z,96.59
2023-07-18T00:45:32.022Z,96.59
2023-07-18T00:45:37.136Z,96.59
2023-07-18T00:45:42.268Z,96.48
2023-07-18T00:46:04.160Z,96.38
2023-07-18T00:46:24.424Z,96.38
2023-07-18T00:46:29.695Z,96.38
2023-07-18T00:46:35.452Z,96.38
2023-07-18T00:46:40.566Z,96.38
2023-07-18T00:46:45.643Z,96.28
2023-07-18T00:47:06.525Z,96.38
2023-07-18T00:47:26.745Z,96.48
2023-07-18T00:47:31.874Z,96.48
2023-07-18T00:47:36.974Z,96.38
2023-07-18T00:47:42.170Z,96.38
2023-07-18T00:47:47.329Z,96.38
2023-07-18T00:48:07.573Z,96.28
2023-07-18T00:48:28.992Z,96.28
2023-07-18T00:48:34.103Z,96.38
2023-07-18T00:48:39.308Z,96.48
2023-07-18T00:48:44.503Z,96.48
2023-07-18T00:48:49.593Z,96.59
2023-07-18T00:49:09.887Z,96.59
2023-07-18T00:49:30.274Z,96.59
2023-07-18T00:49:35.343Z,96.59
2023-07-18T00:49:40.524Z,96.59
2023-07-18T00:49:45.591Z,96.48
2023-07-18T00:49:50.679Z,96.48
2023-07-18T00:50:10.908Z,96.38
2023-07-18T00:50:31.139Z,96.28
2023-07-18T00:50:36.300Z,96.28
2023-07-18T00:50:41.399Z,96.28
2023-07-18T00:50:46.484Z,96.28
2023-07-18T00:50:51.573Z,96.28
2023-07-18T00:51:12.177Z,96.18
2023-07-18T00:51:32.454Z,96.48
2023-07-18T00:51:37.544Z,96.48
2023-07-18T00:51:42.619Z,96.48
2023-07-18T00:51:47.744Z,96.48
2023-07-18T00:51:52.839Z,96.48
2023-07-18T00:52:13.102Z,96.38
2023-07-18T00:52:34.549Z,96.28
2023-07-18T00:52:39.626Z,96.28
2023-07-18T00:52:44.726Z,96.28
2023-07-18T00:52:49.851Z,96.28
2023-07-18T00:52:55.048Z,96.28
2023-07-18T00:53:15.267Z,96.38
2023-07-18T00:53:35.490Z,96.48
2023-07-18T00:53:40.669Z,96.38
2023-07-18T00:53:45.751Z,96.38
2023-07-18T00:53:50.815Z,96.38
2023-07-18T00:53:55.916Z,96.38
2023-07-18T00:54:16.981Z,96.08
2023-07-18T00:54:37.529Z,95.87
2023-07-18T00:54:42.632Z,95.87
2023-07-18T00:54:47.704Z,95.87
2023-07-18T00:54:53.593Z,95.87
2023-07-18T00:54:58.682Z,95.87
2023-07-18T00:55:19.769Z,95.78
2023-07-18T00:55:39.983Z,95.78
2023-07-18T00:55:45.056Z,95.78
2023-07-18T00:55:50.124Z,95.78
2023-07-18T00:55:55.222Z,95.78
2023-07-18T00:56:00.436Z,95.87
2023-07-18T00:56:20.756Z,95.87
2023-07-18T00:56:40.958Z,95.98
2023-07-18T00:56:46.050Z,96.08
2023-07-18T00:56:51.152Z,96.18
2023-07-18T00:56:56.244Z,96.28
2023-07-18T00:57:01.322Z,96.38
2023-07-18T00:57:21.503Z,96.48
2023-07-18T00:57:42.100Z,96.48
2023-07-18T00:57:47.325Z,96.48
2023-07-18T00:57:53.203Z,96.38
2023-07-18T00:57:58.407Z,96.38
2023-07-18T00:58:03.450Z,96.28
2023-07-18T00:58:24.656Z,96.08
2023-07-18T00:58:44.887Z,95.87
2023-07-18T00:58:49.978Z,95.87
2023-07-18T00:58:55.054Z,95.87
2023-07-18T00:59:00.159Z,95.87
2023-07-18T00:59:05.231Z,95.78
2023-07-18T00:59:25.722Z,95.78
2023-07-18T00:59:46.742Z,95.78
2023-07-18T00:59:51.989Z,95.78
2023-07-18T00:59:57.246Z,95.78
2023-07-18T01:00:02.373Z,95.87
2023-07-18T01:00:07.462Z,95.78
2023-07-18T01:00:27.718Z,95.78
2023-07-18T01:00:49.032Z,95.78
2023-07-18T01:00:54.127Z,95.78
2023-07-18T01:00:59.230Z,95.78
2023-07-18T01:01:04.366Z,95.78
2023-07-18T01:01:09.528Z,95.67
2023-07-18T01:01:29.978Z,95.78
2023-07-18T01:01:51.115Z,96.08
2023-07-18T01:01:57.123Z,96.18
2023-07-18T01:02:02.217Z,96.28
2023-07-18T01:02:07.367Z,96.28
2023-07-18T01:02:12.510Z,96.38
2023-07-18T01:02:32.891Z,96.18
2023-07-18T01:02:53.220Z,96.08
2023-07-18T01:02:58.508Z,96.18
2023-07-18T01:03:03.858Z,96.28
2023-07-18T01:03:09.072Z,96.28
2023-07-18T01:03:14.324Z,96.38
2023-07-18T01:03:35.767Z,96.48
2023-07-18T01:03:56.014Z,96.48
2023-07-18T01:04:01.132Z,96.59
2023-07-18T01:04:06.223Z,96.63
2023-07-18T01:04:11.994Z,96.48
2023-07-18T01:04:17.082Z,96.48
2023-07-18T01:04:37.311Z,96.38
2023-07-18T01:04:57.740Z,96.38
2023-07-18T01:05:02.830Z,96.38
2023-07-18T01:05:07.949Z,96.48
2023-07-18T01:05:13.072Z,96.48
2023-07-18T01:05:18.169Z,96.38
2023-07-18T01:05:38.404Z,96.38
2023-07-18T01:05:58.631Z,96.38
2023-07-18T01:06:04.062Z,96.53
2023-07-18T01:06:09.148Z,96.38
2023-07-18T01:06:14.298Z,96.38
2023-07-18T01:06:19.573Z,96.43
2023-07-18T01:06:39.909Z,96.28
2023-07-18T01:07:00.200Z,96.18
2023-07-18T01:07:05.344Z,96.18
2023-07-18T01:07:10.499Z,96.18
2023-07-18T01:07:15.591Z,96.18
2023-07-18T01:07:20.727Z,96.18
2023-07-18T01:07:40.989Z,96.18
2023-07-18T01:08:01.258Z,96.28
2023-07-18T01:08:06.339Z,96.28
2023-07-18T01:08:11.448Z,96.18
2023-07-18T01:08:16.518Z,96.23
2023-07-18T01:08:21.611Z,96.18
2023-07-18T01:08:41.904Z,96.18
2023-07-18T01:09:02.099Z,96.48
2023-07-18T01:09:07.176Z,96.48
2023-07-18T01:09:12.279Z,96.59
2023-07-18T01:09:17.501Z,96.59
2023-07-18T01:09:22.615Z,96.59
2023-07-18T01:09:42.947Z,96.48
2023-07-18T01:10:03.224Z,96.79
2023-07-18T01:10:08.308Z,96.79
2023-07-18T01:10:13.399Z,96.79
2023-07-18T01:10:18.472Z,96.79
2023-07-18T01:10:23.701Z,96.79
2023-07-18T01:10:44.023Z,96.69
2023-07-18T01:11:04.286Z,96.59
2023-07-18T01:11:09.352Z,96.59
2023-07-18T01:11:14.435Z,96.48
2023-07-18T01:11:19.824Z,96.48
2023-07-18T01:11:25.151Z,96.48
2023-07-18T01:11:45.485Z,96.38
2023-07-18T01:12:05.679Z,96.28
2023-07-18T01:12:10.757Z,96.28
2023-07-18T01:12:15.846Z,96.28
2023-07-18T01:12:20.936Z,96.28
2023-07-18T01:12:26.004Z,96.33
2023-07-18T01:12:46.212Z,96.48
2023-07-18T01:13:07.169Z,96.48
2023-07-18T01:13:12.246Z,96.59
2023-07-18T01:13:17.320Z,96.63
2023-07-18T01:13:22.393Z,96.59
2023-07-18T01:13:27.511Z,96.59
2023-07-18T01:13:47.846Z,96.59
2023-07-18T01:14:08.009Z,96.59
2023-07-18T01:14:13.082Z,96.59
2023-07-18T01:14:18.181Z,96.63
2023-07-18T01:14:23.330Z,96.59
2023-07-18T01:14:29.109Z,96.59
2023-07-18T01:14:49.324Z,96.48
2023-07-18T01:15:09.531Z,96.28
2023-07-18T01:15:14.728Z,96.33
2023-07-18T01:15:19.901Z,96.33
2023-07-18T01:15:24.961Z,96.33
2023-07-18T01:15:30.120Z,96.33
2023-07-18T01:15:50.369Z,96.33
2023-07-18T01:16:10.723Z,96.28
2023-07-18T01:16:15.871Z,96.38
2023-07-18T01:16:21.074Z,96.38
2023-07-18T01:16:26.255Z,96.53
2023-07-18T01:16:31.362Z,96.53
2023-07-18T01:16:51.581Z,96.48
2023-07-18T01:17:11.839Z,96.43
2023-07-18T01:17:16.931Z,96.28
2023-07-18T01:17:22.035Z,96.28
2023-07-18T01:17:27.149Z,96.33
2023-07-18T01:17:32.331Z,96.28
2023-07-18T01:17:52.806Z,96.33
2023-07-18T01:18:13.091Z,96.08
2023-07-18T01:18:18.184Z,96.08
2023-07-18T01:18:23.241Z,96.08
2023-07-18T01:18:28.348Z,96.08
2023-07-18T01:18:33.465Z,96.02
2023-07-18T01:18:53.707Z,95.87
2023-07-18T01:19:13.941Z,95.92
2023-07-18T01:19:19.034Z,95.87
2023-07-18T01:19:24.118Z,95.87
2023-07-18T01:19:29.224Z,95.87
2023-07-18T01:19:34.286Z,95.92
2023-07-18T01:19:54.521Z,95.87
2023-07-18T01:20:14.894Z,95.78
2023-07-18T01:20:20.135Z,95.82
2023-07-18T01:20:25.318Z,95.78
2023-07-18T01:20:30.387Z,95.78
2023-07-18T01:20:35.476Z,95.78
2023-07-18T01:20:55.731Z,95.67
2023-07-18T01:21:16.152Z,95.57
2023-07-18T01:21:21.497Z,95.62
2023-07-18T01:21:26.859Z,95.51
2023-07-18T01:21:31.927Z,95.47
2023-07-18T01:21:37.047Z,95.47
2023-07-18T01:21:57.307Z,95.51
2023-07-18T01:22:17.531Z,95.47
2023-07-18T01:22:22.620Z,95.51
2023-07-18T01:22:27.747Z,95.51
2023-07-18T01:22:32.810Z,95.62
2023-07-18T01:22:37.970Z,95.57
2023-07-18T01:22:58.256Z,95.62
2023-07-18T01:23:19.387Z,95.72
2023-07-18T01:23:24.504Z,95.72
2023-07-18T01:23:29.754Z,95.82
2023-07-18T01:23:34.860Z,95.82
2023-07-18T01:23:39.950Z,95.82
2023-07-18T01:24:00.233Z,96.23
2023-07-18T01:24:20.461Z,96.43
2023-07-18T01:24:25.583Z,96.33
2023-07-18T01:24:30.658Z,96.33
2023-07-18T01:24:35.741Z,96.43
2023-07-18T01:24:40.845Z,96.43
2023-07-18T01:25:01.145Z,96.53
2023-07-18T01:25:21.361Z,96.53
2023-07-18T01:25:26.522Z,96.43
2023-07-18T01:25:31.733Z,96.43
2023-07-18T01:25:36.985Z,96.33
2023-07-18T01:25:42.074Z,96.33
2023-07-18T01:26:02.283Z,96.12
2023-07-18T01:26:22.590Z,96.12
2023-07-18T01:26:27.694Z,96.12
2023-07-18T01:26:32.766Z,96.12
2023-07-18T01:26:37.848Z,96.12
2023-07-18T01:26:42.969Z,96.12
2023-07-18T01:27:03.217Z,96.33
2023-07-18T01:27:23.413Z,96.53
2023-07-18T01:27:28.602Z,96.53
2023-07-18T01:27:33.703Z,96.53
2023-07-18T01:27:38.780Z,96.53
2023-07-18T01:27:43.855Z,96.53
2023-07-18T01:28:04.180Z,96.53
2023-07-18T01:28:24.442Z,96.53
2023-07-18T01:28:29.610Z,96.53
2023-07-18T01:28:34.726Z,96.53
2023-07-18T01:28:39.839Z,96.53
2023-07-18T01:28:44.973Z,96.53
2023-07-18T01:29:05.175Z,96.73
2023-07-18T01:29:25.414Z,96.73
2023-07-18T01:29:30.509Z,96.88
2023-07-18T01:29:35.579Z,96.83
2023-07-18T01:29:40.765Z,96.98
2023-07-18T01:29:45.839Z,96.98
2023-07-18T01:30:06.335Z,96.98
2023-07-18T01:30:26.581Z,97.08
2023-07-18T01:30:32.508Z,97.19
2023-07-18T01:30:37.752Z,97.19
2023-07-18T01:30:42.900Z,97.19
2023-07-18T01:30:48.091Z,97.19
2023-07-18T01:31:08.533Z,97.29
2023-07-18T01:31:28.849Z,97.19
2023-07-18T01:31:33.970Z,97.19
2023-07-18T01:31:39.183Z,97.19
2023-07-18T01:31:44.333Z,97.29
2023-07-18T01:31:49.485Z,97.29
2023-07-18T01:32:09.722Z,97.14
2023-07-18T01:32:29.955Z,97.19
2023-07-18T01:32:35.335Z,97.19
2023-07-18T01:32:40.663Z,97.14
2023-07-18T01:32:45.866Z,97.19
2023-07-18T01:32:51.045Z,97.29
2023-07-18T01:33:11.335Z,97.29
2023-07-18T01:33:31.608Z,97.19
2023-07-18T01:33:36.725Z,97.19
2023-07-18T01:33:41.783Z,97.19
2023-07-18T01:33:46.871Z,97.14
2023-07-18T01:33:51.953Z,97.19
2023-07-18T01:34:12.224Z,97.19
2023-07-18T01:34:32.704Z,97.04
2023-07-18T01:34:37.783Z,97.04
2023-07-18T01:34:42.857Z,97.04
2023-07-18T01:34:47.944Z,97.04
2023-07-18T01:34:53.044Z,97.04
2023-07-18T01:35:14.146Z,97.04
2023-07-18T01:35:34.418Z,96.94
2023-07-18T01:35:39.486Z,97.04
2023-07-18T01:35:44.721Z,96.94
2023-07-18T01:35:49.828Z,96.94
2023-07-18T01:35:54.919Z,96.94
2023-07-18T01:36:15.160Z,97.04
2023-07-18T01:36:36.170Z,96.94
2023-07-18T01:36:41.251Z,96.94
2023-07-18T01:36:46.356Z,97.04
2023-07-18T01:36:51.453Z,96.94
2023-07-18T01:36:56.535Z,96.94
2023-07-18T01:37:16.748Z,96.94
2023-07-18T01:37:37.036Z,96.94
2023-07-18T01:37:42.118Z,96.94
2023-07-18T01:37:47.202Z,96.83
2023-07-18T01:37:52.338Z,96.83
2023-07-18T01:37:57.440Z,96.83
2023-07-18T01:38:17.820Z,96.73
2023-07-18T01:38:38.110Z,96.63
2023-07-18T01:38:43.189Z,96.53
2023-07-18T01:38:48.311Z,96.53
2023-07-18T01:38:53.441Z,96.38
2023-07-18T01:38:59.110Z,96.33
2023-07-18T01:39:19.400Z,96.08
2023-07-18T01:39:39.768Z,96.02
2023-07-18T01:39:44.879Z,95.98
2023-07-18T01:39:49.986Z,95.98
2023-07-18T01:39:55.067Z,95.98
2023-07-18T01:40:00.174Z,95.98
2023-07-18T01:40:20.420Z,95.98
2023-07-18T01:40:40.735Z,95.98
2023-07-18T01:40:45.821Z,95.98
2023-07-18T01:42:18.629Z,95.87
2023-07-18T01:42:23.758Z,95.47
2023-07-18T01:42:28.849Z,95.47
2023-07-18T01:42:33.977Z,95.47
2023-07-18T01:42:39.038Z,95.47
2023-07-18T01:42:44.134Z,95.47
2023-07-18T01:43:19.488Z,95.47
2023-07-18T01:43:24.584Z,95.57
2023-07-18T01:43:29.670Z,95.57
2023-07-18T01:43:34.742Z,95.57
2023-07-18T01:43:39.922Z,95.57
2023-07-18T01:43:44.999Z,95.57
2023-07-18T01:44:20.358Z,95.47
2023-07-18T01:44:25.519Z,95.47
2023-07-18T01:44:30.695Z,95.47
2023-07-18T01:44:35.837Z,95.47
2023-07-18T01:44:40.943Z,95.47
2023-07-18T01:44:46.046Z,95.47
2023-07-18T01:45:21.391Z,95.57
2023-07-18T01:45:26.498Z,95.57
2023-07-18T01:45:31.557Z,95.57
2023-07-18T01:45:36.655Z,95.57
2023-07-18T01:45:41.748Z,95.57
2023-07-18T01:45:46.986Z,95.57
2023-07-18T01:46:22.809Z,95.57
2023-07-18T01:46:29.419Z,95.78
2023-07-18T01:46:36.648Z,96.08
2023-07-18T01:46:41.774Z,96.28
2023-07-18T01:46:47.180Z,96.33
2023-07-18T01:46:52.304Z,96.38
2023-07-18T01:47:27.687Z,96.12
2023-07-18T01:47:32.956Z,96.12
2023-07-18T01:47:38.151Z,96.12
2023-07-18T01:47:43.354Z,96.23
2023-07-18T01:47:48.527Z,96.23
2023-07-18T01:47:53.736Z,96.23
2023-07-18T01:48:29.334Z,96.33
2023-07-18T01:48:34.397Z,96.33
2023-07-18T01:48:39.470Z,96.33
2023-07-18T01:48:44.581Z,96.33
2023-07-18T01:48:49.678Z,96.33
2023-07-18T01:48:55.635Z,96.43
2023-07-18T01:49:31.801Z,96.63
2023-07-18T01:49:37.381Z,96.73
2023-07-18T01:49:42.510Z,96.94
2023-07-18T01:49:47.601Z,97.04
2023-07-18T01:49:52.743Z,97.14
2023-07-18T01:49:57.822Z,97.14
2023-07-18T01:50:33.309Z,97.44
2023-07-18T01:50:38.438Z,97.44
2023-07-18T01:50:43.507Z,97.44
2023-07-18T01:50:48.638Z,97.44
2023-07-18T01:50:53.721Z,97.44
2023-07-18T01:50:58.793Z,97.44
2023-07-18T01:51:34.996Z,97.75
2023-07-18T01:51:40.068Z,97.75
2023-07-18T01:51:45.130Z,97.75
2023-07-18T01:51:50.237Z,97.89
2023-07-18T01:51:55.331Z,97.89
2023-07-18T01:52:00.448Z,97.89
2023-07-18T01:52:35.995Z,97.89
2023-07-18T01:52:41.075Z,97.89
2023-07-18T01:52:46.195Z,97.89
2023-07-18T01:52:51.455Z,97.89
2023-07-18T01:52:57.101Z,97.89
2023-07-18T01:53:02.342Z,97.89
2023-07-18T01:53:37.862Z,98.00
2023-07-18T01:53:42.955Z,98.00
2023-07-18T01:53:50.984Z,98.00
2023-07-18T01:53:56.199Z,98.00
2023-07-18T01:54:01.287Z,98.00
2023-07-18T01:54:06.353Z,98.00
2023-07-18T01:54:41.776Z,98.10
2023-07-18T01:54:46.837Z,98.00
2023-07-18T01:54:51.960Z,98.00
2023-07-18T01:54:57.033Z,98.10
2023-07-18T01:55:02.133Z,98.00
2023-07-18T01:55:07.198Z,98.00
2023-07-18T01:55:42.712Z,98.20
2023-07-18T01:55:47.878Z,98.20
2023-07-18T01:55:52.979Z,98.20
2023-07-18T01:55:58.049Z,98.20
2023-07-18T01:56:03.313Z,98.20
2023-07-18T01:56:08.423Z,98.20
2023-07-18T01:56:43.996Z,98.30
2023-07-18T01:56:49.070Z,98.30
2023-07-18T01:56:54.154Z,98.30
2023-07-18T01:56:59.233Z,98.20
2023-07-18T01:57:04.304Z,98.30
2023-07-18T01:57:09.391Z,98.30
2023-07-18T01:57:44.853Z,98.30
2023-07-18T01:57:49.940Z,98.30
2023-07-18T01:57:55.084Z,98.30
2023-07-18T01:58:00.238Z,98.30
2023-07-18T01:58:05.304Z,98.30
2023-07-18T01:58:10.461Z,98.30
2023-07-18T01:58:45.883Z,98.20
2023-07-18T01:58:51.018Z,98.20
2023-07-18T01:58:56.124Z,98.10
2023-07-18T01:59:01.206Z,98.10
2023-07-18T01:59:06.311Z,98.20
2023-07-18T01:59:12.011Z,98.20
2023-07-18T01:59:47.348Z,98.30
2023-07-18T01:59:52.427Z,98.30
2023-07-18T01:59:57.513Z,98.30
2023-07-18T02:00:02.588Z,98.30
2023-07-18T02:00:07.701Z,98.30
2023-07-18T02:00:12.819Z,98.30
2023-07-18T02:00:48.225Z,98.30
2023-07-18T02:00:53.308Z,98.20
2023-07-18T02:00:58.422Z,98.20
2023-07-18T02:01:03.613Z,98.20
2023-07-18T02:01:08.731Z,98.20
2023-07-18T02:01:13.887Z,98.20
2023-07-18T02:01:49.445Z,98.10
2023-07-18T02:01:54.623Z,98.10
2023-07-18T02:01:59.700Z,98.10
2023-07-18T02:02:04.838Z,98.10
2023-07-18T02:02:10.000Z,98.10
2023-07-18T02:02:15.099Z,98.10
2023-07-18T02:02:51.616Z,98.10
2023-07-18T02:02:56.980Z,98.10
2023-07-18T02:03:02.210Z,98.10
2023-07-18T02:03:07.485Z,98.10
2023-07-18T02:03:12.716Z,98.05
2023-07-18T02:03:17.919Z,98.10
2023-07-18T02:03:53.349Z,98.16
2023-07-18T02:05:44.185Z,98.05
2023-07-18T02:05:49.260Z,98.05
2023-07-18T02:05:54.920Z,98.05
2023-07-18T02:06:00.329Z,97.96
2023-07-18T02:06:05.403Z,97.96
2023-07-18T02:06:10.500Z,97.96
2023-07-18T02:06:47.224Z,97.75
2023-07-18T02:06:52.391Z,97.75
2023-07-18T02:06:57.487Z,97.65
2023-07-18T02:07:02.576Z,97.65
2023-07-18T02:07:09.336Z,97.55
2023-07-18T02:07:15.036Z,97.55
2023-07-18T02:07:50.478Z,97.30
2023-07-18T02:07:55.567Z,97.34
2023-07-18T02:08:00.691Z,97.24
2023-07-18T02:08:05.780Z,97.24
2023-07-18T02:08:10.874Z,97.24
2023-07-18T02:08:16.932Z,97.24
2023-07-18T02:08:52.252Z,97.24
2023-07-18T02:08:57.368Z,97.14
2023-07-18T02:09:02.487Z,97.14
2023-07-18T02:09:07.562Z,97.14
2023-07-18T02:09:12.641Z,97.14
2023-07-18T02:09:17.727Z,97.24
2023-07-18T02:09:53.974Z,97.04
2023-07-18T02:09:59.055Z,97.04
2023-07-18T02:10:04.198Z,97.04
2023-07-18T02:10:09.305Z,97.04
2023-07-18T02:10:14.376Z,97.04
2023-07-18T02:10:19.488Z,97.04
2023-07-18T02:10:54.788Z,97.14
2023-07-18T02:11:00.060Z,97.14
2023-07-18T02:11:05.119Z,97.14
2023-07-18T02:11:10.242Z,97.14
2023-07-18T02:11:15.382Z,97.04
2023-07-18T02:11:21.693Z,97.04
2023-07-18T02:11:57.870Z,96.83
2023-07-18T02:12:03.016Z,96.83
2023-07-18T02:12:08.075Z,96.94
2023-07-18T02:12:13.164Z,96.94
2023-07-18T02:12:18.231Z,96.94
2023-07-18T02:12:23.345Z,96.83
2023-07-18T02:12:58.772Z,96.83
2023-07-18T02:13:03.863Z,96.94
2023-07-18T02:13:08.929Z,96.89
2023-07-18T02:13:14.026Z,96.94
2023-07-18T02:13:19.122Z,96.94
2023-07-18T02:13:24.190Z,96.94
2023-07-18T02:13:59.568Z,97.04
2023-07-18T02:14:04.650Z,97.04
2023-07-18T02:14:09.788Z,97.04
2023-07-18T02:14:15.058Z,96.99
2023-07-18T02:14:20.153Z,97.04
2023-07-18T02:14:25.221Z,97.04
2023-07-18T02:16:49.184Z,96.59
2023-07-18T02:16:54.336Z,96.48